createdAt,value
2022-09-17T00:01:31.551Z,69.10
2022-09-17T00:04:04.617Z,69.30
2022-09-17T00:06:34.143Z,69.60
2022-09-17T00:09:02.871Z,69.70
2022-09-17T00:11:32.410Z,70.00
2022-09-17T00:14:01.812Z,70.30
2022-09-17T00:16:31.460Z,70.70
2022-09-17T00:19:02.081Z,71.10
2022-09-17T00:21:30.725Z,71.40
2022-09-17T00:24:00.571Z,71.70
2022-09-17T00:26:30.188Z,72.00
2022-09-17T00:28:59.315Z,72.30
2022-09-17T00:31:28.527Z,72.60
2022-09-17T00:33:57.048Z,72.80
2022-09-17T00:36:27.195Z,72.80
2022-09-17T00:38:56.760Z,72.80
2022-09-17T00:41:26.641Z,73.60
2022-09-17T00:43:57.323Z,73.70
2022-09-17T00:46:30.600Z,73.10
2022-09-17T00:48:59.920Z,73.10
2022-09-17T00:51:32.373Z,73.00
2022-09-17T00:54:02.005Z,73.10
2022-09-17T00:56:33.249Z,73.20
2022-09-17T00:59:02.444Z,73.30
2022-09-17T01:01:31.466Z,73.20
2022-09-17T01:03:59.987Z,73.00
2022-09-17T01:06:34.550Z,73.00
2022-09-17T01:09:11.209Z,73.00
2022-09-17T01:11:50.097Z,72.90
2022-09-17T01:14:24.529Z,72.60
2022-09-17T01:16:58.855Z,72.70
2022-09-17T01:19:42.781Z,72.80
2022-09-17T01:22:15.722Z,72.80
2022-09-17T01:24:49.445Z,72.70
2022-09-17T01:27:25.755Z,72.70
2022-09-17T01:30:01.180Z,72.80
2022-09-17T01:32:34.048Z,72.70
2022-09-17T01:35:05.571Z,72.60
2022-09-17T01:37:35.688Z,72.50
2022-09-17T01:40:08.673Z,72.40
2022-09-17T01:42:39.968Z,72.20
2022-09-17T01:45:11.438Z,72.20
2022-09-17T01:47:43.765Z,72.30
2022-09-17T01:50:14.348Z,72.40
2022-09-17T01:52:44.927Z,72.50
2022-09-17T01:55:15.759Z,72.50
2022-09-17T01:57:47.076Z,72.60
2022-09-17T02:00:17.810Z,72.60
2022-09-17T02:02:49.820Z,72.60
2022-09-17T02:05:21.036Z,72.30
2022-09-17T02:07:52.281Z,71.90
2022-09-17T02:10:22.497Z,71.70
2022-09-17T02:12:54.165Z,71.40
2022-09-17T02:15:23.973Z,71.40
2022-09-17T02:17:56.110Z,71.60
2022-09-17T02:20:26.097Z,71.40
2022-09-17T02:22:58.123Z,71.50
2022-09-17T02:25:30.104Z,71.50
2022-09-17T02:28:03.433Z,71.50
2022-09-17T02:30:32.674Z,71.80
2022-09-17T02:33:03.014Z,71.90
2022-09-17T02:35:33.313Z,71.90
2022-09-17T02:38:02.013Z,72.00
2022-09-17T02:40:33.155Z,72.10
2022-09-17T02:43:08.587Z,72.20
2022-09-17T02:45:43.446Z,72.10
2022-09-17T02:48:21.272Z,72.20
2022-09-17T02:51:00.475Z,72.30
2022-09-17T02:53:35.267Z,72.40
2022-09-17T02:56:13.903Z,73.00
2022-09-17T02:58:46.699Z,72.60
2022-09-17T03:01:19.939Z,72.70
2022-09-17T03:03:51.422Z,72.90
2022-09-17T03:06:39.330Z,73.00
2022-09-17T03:09:08.011Z,73.20
2022-09-17T03:11:36.618Z,73.30
2022-09-17T03:14:05.449Z,73.40
2022-09-17T03:16:34.012Z,73.40
2022-09-17T03:19:04.097Z,73.20
2022-09-17T03:21:32.640Z,73.00
2022-09-17T03:24:01.588Z,72.80
2022-09-17T03:26:30.038Z,72.90
2022-09-17T03:28:59.266Z,72.80
2022-09-17T03:31:29.448Z,72.80
2022-09-17T03:33:58.982Z,72.70
2022-09-17T03:36:29.072Z,72.40
2022-09-17T03:38:57.682Z,72.50
2022-09-17T03:41:26.778Z,72.20
2022-09-17T03:43:55.203Z,72.30
2022-09-17T03:46:23.946Z,72.50
2022-09-17T03:48:52.418Z,72.80
2022-09-17T03:51:21.013Z,72.90
2022-09-17T03:53:51.092Z,73.00
2022-09-17T03:56:19.753Z,73.30
2022-09-17T03:58:48.309Z,73.50
2022-09-17T04:01:17.047Z,73.70
2022-09-17T04:03:46.151Z,73.90
2022-09-17T04:06:14.653Z,74.20
2022-09-17T04:08:43.895Z,74.40
2022-09-17T04:11:14.104Z,74.40
2022-09-17T04:13:42.705Z,74.50
2022-09-17T04:16:11.580Z,74.50
2022-09-17T04:18:40.255Z,74.60
2022-09-17T04:21:08.992Z,74.80
2022-09-17T04:23:37.551Z,74.70
2022-09-17T04:26:06.268Z,74.80
2022-09-17T04:28:36.241Z,74.80
2022-09-17T04:31:04.922Z,74.90
2022-09-17T04:33:33.550Z,74.90
2022-09-17T04:36:02.130Z,75.00
2022-09-17T04:38:30.617Z,75.10
2022-09-17T04:40:59.256Z,75.50
2022-09-17T04:43:27.708Z,75.30
2022-09-17T04:45:57.750Z,75.50
2022-09-17T04:48:26.427Z,75.60
2022-09-17T04:50:54.908Z,75.70
2022-09-17T04:53:23.376Z,75.80
2022-09-17T04:55:51.921Z,75.80
2022-09-17T04:58:20.446Z,76.50
2022-09-17T05:00:49.522Z,75.60
2022-09-17T05:03:19.440Z,75.60
2022-09-17T05:05:47.893Z,75.60
2022-09-17T05:08:16.502Z,75.50
2022-09-17T05:10:45.279Z,75.50
2022-09-17T05:13:13.788Z,75.50
2022-09-17T05:15:42.623Z,75.60
2022-09-17T05:18:11.211Z,75.60
2022-09-17T05:20:41.272Z,75.50
2022-09-17T05:23:09.894Z,75.40
2022-09-17T05:25:38.389Z,75.40
2022-09-17T05:28:07.187Z,75.40
2022-09-17T05:30:35.974Z,75.20
2022-09-17T05:33:05.889Z,75.00
2022-09-17T05:35:36.084Z,74.70
2022-09-17T05:38:10.090Z,74.40
2022-09-17T05:40:39.306Z,74.10
2022-09-17T05:43:08.431Z,74.00
2022-09-17T05:45:37.725Z,73.70
2022-09-17T05:48:07.624Z,73.60
2022-09-17T05:50:36.205Z,73.60
2022-09-17T05:53:07.067Z,73.30
2022-09-17T05:55:36.382Z,73.20
2022-09-17T05:58:11.311Z,72.80
2022-09-17T06:00:40.052Z,72.70
2022-09-17T06:03:08.694Z,72.50
2022-09-17T06:05:39.746Z,72.50
2022-09-17T06:08:10.713Z,72.10
2022-09-17T06:10:39.679Z,71.80
2022-09-17T06:13:08.276Z,71.40
2022-09-17T06:15:36.815Z,71.10
2022-09-17T06:18:05.427Z,70.70
2022-09-17T06:20:34.409Z,70.30
2022-09-17T06:23:03.079Z,70.10
2022-09-17T06:25:33.847Z,70.00
2022-09-17T06:28:03.809Z,69.80
2022-09-17T06:30:32.601Z,69.40
2022-09-17T06:33:01.825Z,69.30
2022-09-17T06:35:31.018Z,69.10
2022-09-17T06:37:59.755Z,69.00
2022-09-17T06:40:28.394Z,68.70
2022-09-17T06:43:00.704Z,68.60
2022-09-17T06:45:32.342Z,68.10
2022-09-17T06:48:05.237Z,67.50
2022-09-17T06:50:33.897Z,67.40
2022-09-17T06:53:02.467Z,67.30
2022-09-17T06:55:31.873Z,67.20
2022-09-17T06:58:01.950Z,67.10
2022-09-17T07:00:49.072Z,67.10
2022-09-17T07:03:22.497Z,66.90
2022-09-17T07:05:52.041Z,66.70
2022-09-17T07:08:20.530Z,66.50
2022-09-17T07:10:50.358Z,66.50
2022-09-17T07:13:20.649Z,66.40
2022-09-17T07:15:55.349Z,66.30
2022-09-17T07:18:24.236Z,66.10
2022-09-17T07:20:56.437Z,65.80
2022-09-17T07:23:25.398Z,65.80
2022-09-17T07:26:14.444Z,65.50
2022-09-17T07:28:45.227Z,65.10
2022-09-17T07:31:16.594Z,65.20
2022-09-17T07:33:45.961Z,65.20
2022-09-17T07:36:15.144Z,65.40
2022-09-17T07:38:43.668Z,65.20
2022-09-17T07:41:13.955Z,64.90
2022-09-17T07:43:42.839Z,64.80
2022-09-17T07:46:15.711Z,64.60
2022-09-17T07:48:44.532Z,64.20
2022-09-17T07:51:16.390Z,64.00
2022-09-17T07:53:45.050Z,63.90
2022-09-17T07:56:13.545Z,63.80
2022-09-17T07:58:42.499Z,63.60
2022-09-17T08:01:13.677Z,63.50
2022-09-17T08:03:42.513Z,63.30
2022-09-17T08:06:11.808Z,63.00
2022-09-17T08:08:40.814Z,62.70
2022-09-17T08:11:10.356Z,62.00
2022-09-17T08:13:39.311Z,61.60
2022-09-17T08:16:08.744Z,61.40
2022-09-17T08:18:38.861Z,61.10
2022-09-17T08:21:08.396Z,60.60
2022-09-17T08:23:37.700Z,60.00
2022-09-17T08:26:08.684Z,59.60
2022-09-17T08:28:37.543Z,59.20
2022-09-17T08:31:08.387Z,58.90
2022-09-17T08:33:39.070Z,58.50
2022-09-17T08:36:08.735Z,57.90
2022-09-17T08:38:38.743Z,57.70
2022-09-17T08:41:14.815Z,57.10
2022-09-17T08:43:45.442Z,56.80
2022-09-17T08:46:14.214Z,56.40
2022-09-17T08:48:48.996Z,56.30
2022-09-17T08:51:41.942Z,56.00
2022-09-17T08:54:14.147Z,55.30
2022-09-17T08:56:45.284Z,54.80
2022-09-17T08:59:22.160Z,54.20
2022-09-17T09:01:55.565Z,53.70
2022-09-17T09:04:35.780Z,53.00
2022-09-17T09:07:08.060Z,52.70
2022-09-17T09:09:39.862Z,52.00
2022-09-17T09:12:11.936Z,51.50
2022-09-17T09:14:47.688Z,50.80
2022-09-17T09:17:20.040Z,50.60
2022-09-17T09:20:15.985Z,49.90
2022-09-17T09:22:50.145Z,49.30
2022-09-17T09:25:25.517Z,48.50
2022-09-17T09:28:07.601Z,47.70
2022-09-17T09:30:44.179Z,47.60
2022-09-17T09:33:14.954Z,46.60
2022-09-17T09:35:45.997Z,44.80
2022-09-17T09:38:18.353Z,43.60
2022-09-17T09:40:50.221Z,42.20
2022-09-17T09:43:21.058Z,41.30
2022-09-17T09:46:01.230Z,41.50
2022-09-17T09:48:53.359Z,41.00
2022-09-17T09:51:30.761Z,40.10
2022-09-17T09:54:08.153Z,39.10
2022-09-17T09:56:44.171Z,38.30
2022-09-17T09:59:13.172Z,38.30
2022-09-17T10:01:42.630Z,37.10
2022-09-17T10:04:17.131Z,35.10
2022-09-17T10:06:47.266Z,34.70
2022-09-17T10:09:17.944Z,34.10
2022-09-17T10:12:06.584Z,33.70
2022-09-17T10:14:35.798Z,33.60
2022-09-17T10:17:17.968Z,33.00
2022-09-17T10:19:47.306Z,32.10
2022-09-17T10:22:27.832Z,32.30
2022-09-17T10:24:57.589Z,31.10
2022-09-17T10:27:26.567Z,30.30
2022-09-17T10:29:59.484Z,29.90
2022-09-17T10:32:28.051Z,29.60
2022-09-17T10:35:01.269Z,29.60
2022-09-17T10:37:35.614Z,29.20
2022-09-17T10:40:24.209Z,28.70
2022-09-17T10:43:14.509Z,28.70
2022-09-17T10:45:45.091Z,28.40
2022-09-17T10:48:17.262Z,28.40
2022-09-17T10:50:49.538Z,28.40
2022-09-17T10:53:19.977Z,28.30
2022-09-17T10:55:49.794Z,27.90
2022-09-17T10:58:31.876Z,28.20
2022-09-17T11:01:04.166Z,28.20
2022-09-17T11:03:56.811Z,28.10
2022-09-17T11:06:44.178Z,28.20
2022-09-17T11:09:20.385Z,28.00
2022-09-17T11:11:56.289Z,28.00
2022-09-17T11:14:38.399Z,27.80
2022-09-17T11:17:12.875Z,28.20
2022-09-17T11:19:47.333Z,28.10
2022-09-17T11:22:21.226Z,28.10
2022-09-17T11:25:07.612Z,27.80
2022-09-17T11:27:48.036Z,27.90
2022-09-17T11:30:18.129Z,27.60
2022-09-17T11:32:55.414Z,27.70
2022-09-17T11:35:25.723Z,27.60
2022-09-17T11:37:59.900Z,27.70
2022-09-17T11:40:33.604Z,27.80
2022-09-17T11:43:05.209Z,28.00
2022-09-17T11:45:36.167Z,28.10
2022-09-17T11:48:06.653Z,27.40
2022-09-17T11:50:39.082Z,27.30
2022-09-17T11:53:11.125Z,27.10
2022-09-17T11:55:41.752Z,27.10
2022-09-17T11:58:17.235Z,27.10
2022-09-17T12:00:50.368Z,27.00
2022-09-17T12:03:23.546Z,26.70
2022-09-17T12:05:53.792Z,26.90
2022-09-17T12:08:24.082Z,26.60
2022-09-17T12:10:54.410Z,26.50
2022-09-17T12:13:45.212Z,26.90
2022-09-17T12:16:15.873Z,27.10
2022-09-17T12:18:49.191Z,26.90
2022-09-17T12:21:19.623Z,27.00
2022-09-17T12:23:50.602Z,27.10
2022-09-17T12:26:51.933Z,27.10
2022-09-17T12:29:29.457Z,27.40
2022-09-17T12:32:00.444Z,27.40
2022-09-17T12:34:34.270Z,27.30
2022-09-17T12:37:10.090Z,27.20
2022-09-17T12:39:45.531Z,27.40
2022-09-17T12:42:20.292Z,27.20
2022-09-17T12:44:57.556Z,26.90
2022-09-17T12:47:49.809Z,26.80
2022-09-17T12:50:21.970Z,26.90
2022-09-17T12:53:02.453Z,27.20
2022-09-17T12:55:37.797Z,27.00
2022-09-17T12:58:09.786Z,26.80
2022-09-17T13:00:42.111Z,26.80
2022-09-17T13:03:17.415Z,26.70
2022-09-17T13:06:10.368Z,26.60
2022-09-17T13:08:56.566Z,26.80
2022-09-17T13:11:41.275Z,27.00
2022-09-17T13:14:17.488Z,27.00
2022-09-17T13:16:51.398Z,26.40
2022-09-17T13:19:25.526Z,26.50
2022-09-17T13:21:55.881Z,26.20
2022-09-17T13:24:25.888Z,26.00
2022-09-17T13:26:55.072Z,26.80
2022-09-17T13:29:56.710Z,26.80
2022-09-17T13:32:45.491Z,26.70
2022-09-17T13:35:32.746Z,26.40
2022-09-17T13:38:02.123Z,26.40
2022-09-17T13:40:31.869Z,26.30
2022-09-17T13:43:07.997Z,26.40
2022-09-17T13:45:56.792Z,26.40
2022-09-17T13:48:27.953Z,26.20
2022-09-17T13:50:57.396Z,26.10
2022-09-17T13:53:28.243Z,26.00
2022-09-17T13:55:58.982Z,26.00
2022-09-17T13:58:29.267Z,26.30
2022-09-17T14:00:58.876Z,26.20
2022-09-17T14:03:45.938Z,26.10
2022-09-17T14:06:33.760Z,26.60
2022-09-17T14:09:23.733Z,26.40
2022-09-17T14:11:52.434Z,26.40
2022-09-17T14:14:42.292Z,26.50
2022-09-17T14:17:11.629Z,26.40
2022-09-17T14:19:51.057Z,26.80
2022-09-17T14:22:25.058Z,27.00
2022-09-17T14:24:55.708Z,27.10
2022-09-17T14:27:42.382Z,27.20
2022-09-17T14:30:15.925Z,27.70
2022-09-17T14:32:46.183Z,27.50
2022-09-17T14:35:20.005Z,27.50
2022-09-17T14:37:53.855Z,27.80
2022-09-17T14:40:25.330Z,28.00
2022-09-17T14:42:56.744Z,28.30
2022-09-17T14:45:27.711Z,28.40
2022-09-17T14:48:14.571Z,28.70
2022-09-17T14:50:43.199Z,28.80
2022-09-17T14:53:15.964Z,28.90
2022-09-17T14:55:46.729Z,28.70
2022-09-17T14:58:29.538Z,29.00
2022-09-17T15:01:01.175Z,29.30
2022-09-17T15:03:29.835Z,29.30
2022-09-17T15:05:58.625Z,29.30
2022-09-17T15:08:29.022Z,29.60
2022-09-17T15:11:00.490Z,30.00
2022-09-17T15:13:30.076Z,30.70
2022-09-17T15:16:01.048Z,31.50
2022-09-17T15:18:37.720Z,31.60
2022-09-17T15:21:08.959Z,31.60
2022-09-17T15:23:41.473Z,32.20
2022-09-17T15:26:13.446Z,33.10
2022-09-17T15:28:43.124Z,34.00
2022-09-17T15:31:17.353Z,35.00
2022-09-17T15:33:46.099Z,35.80
2022-09-17T15:36:19.498Z,36.20
2022-09-17T15:38:48.116Z,36.80
2022-09-17T15:41:28.794Z,38.30
2022-09-17T15:44:28.530Z,37.90
2022-09-17T15:47:33.243Z,39.30
2022-09-17T15:50:14.855Z,40.00
2022-09-17T15:52:43.829Z,40.60
2022-09-17T15:55:29.506Z,41.10
2022-09-17T15:58:00.408Z,41.60
2022-09-17T16:00:29.037Z,42.10
2022-09-17T16:02:57.588Z,42.60
2022-09-17T16:05:55.665Z,43.00
2022-09-17T16:08:26.032Z,43.50
2022-09-17T16:10:54.588Z,43.70
2022-09-17T16:13:28.571Z,44.30
2022-09-17T16:15:57.780Z,45.10
2022-09-17T16:18:26.299Z,45.20
2022-09-17T16:20:54.801Z,45.30
2022-09-17T16:23:23.567Z,45.60
2022-09-17T16:25:52.871Z,45.80
2022-09-17T16:28:21.433Z,46.60
2022-09-17T16:30:52.106Z,47.10
2022-09-17T16:33:20.747Z,47.60
2022-09-17T16:35:49.320Z,48.10
2022-09-17T16:38:17.926Z,49.70
2022-09-17T16:40:47.922Z,50.00
2022-09-17T16:43:16.509Z,50.90
2022-09-17T16:45:45.292Z,51.80
2022-09-17T16:48:15.312Z,51.80
2022-09-17T16:50:44.916Z,51.60
2022-09-17T16:53:14.335Z,52.60
2022-09-17T16:55:42.864Z,53.10
2022-09-17T16:58:12.486Z,52.90
2022-09-17T17:00:44.471Z,53.40
2022-09-17T17:03:14.949Z,53.40
2022-09-17T17:05:43.941Z,53.80
2022-09-17T17:08:12.499Z,53.70
2022-09-17T17:10:41.180Z,53.80
2022-09-17T17:13:09.688Z,54.40
2022-09-17T17:15:41.655Z,54.30
2022-09-17T17:18:10.326Z,54.30
2022-09-17T17:20:40.366Z,53.80
2022-09-17T17:23:09.617Z,54.40
2022-09-17T17:25:38.591Z,53.70
2022-09-17T17:28:09.151Z,53.80
2022-09-17T17:30:38.640Z,53.30
2022-09-17T17:33:07.172Z,53.30
2022-09-17T17:35:35.806Z,53.00
2022-09-17T17:38:05.849Z,52.40
2022-09-17T17:40:42.576Z,52.50
2022-09-17T17:43:14.581Z,52.80
2022-09-17T17:45:43.350Z,53.10
2022-09-17T17:48:11.925Z,53.40
2022-09-17T17:50:40.488Z,53.40
2022-09-17T17:53:10.721Z,53.20
2022-09-17T17:55:39.249Z,53.10
2022-09-17T17:58:07.689Z,53.80
2022-09-17T18:00:36.208Z,53.50
2022-09-17T18:03:05.040Z,53.50
2022-09-17T18:05:33.567Z,53.40
2022-09-17T18:08:02.268Z,53.80
2022-09-17T18:10:32.225Z,54.20
2022-09-17T18:13:01.317Z,54.30
2022-09-17T18:15:29.928Z,54.50
2022-09-17T18:17:58.381Z,54.60
2022-09-17T18:20:26.884Z,54.70
2022-09-17T18:22:56.007Z,55.00
2022-09-17T18:25:24.504Z,55.00
2022-09-17T18:27:54.455Z,55.00
2022-09-17T18:30:23.133Z,54.80
2022-09-17T18:32:53.180Z,54.60
2022-09-17T18:35:23.229Z,54.60
2022-09-17T18:37:51.836Z,54.70
2022-09-17T18:40:20.366Z,54.80
2022-09-17T18:42:49.828Z,55.00
2022-09-17T18:45:19.778Z,55.40
2022-09-17T18:47:48.233Z,55.60
2022-09-17T18:50:16.955Z,55.80
2022-09-17T18:52:45.490Z,55.80
2022-09-17T18:55:14.091Z,56.00
2022-09-17T18:57:42.597Z,56.30
2022-09-17T19:00:11.747Z,56.40
2022-09-17T19:02:41.723Z,56.60
2022-09-17T19:05:29.365Z,56.60
2022-09-17T19:07:57.937Z,56.50
2022-09-17T19:10:51.076Z,56.60
2022-09-17T19:13:19.600Z,56.70
2022-09-17T19:16:07.950Z,56.90
2022-09-17T19:18:38.426Z,56.90
2022-09-17T19:21:08.242Z,56.80
2022-09-17T19:23:41.251Z,56.70
2022-09-17T19:26:10.764Z,56.80
2022-09-17T19:28:39.604Z,56.90
2022-09-17T19:31:08.457Z,56.80
2022-09-17T19:33:38.435Z,56.80
2022-09-17T19:36:08.567Z,57.00
2022-09-17T19:38:37.164Z,57.30
2022-09-17T19:41:06.911Z,57.30
2022-09-17T19:43:35.447Z,57.30
2022-09-17T19:46:04.246Z,57.30
2022-09-17T19:48:33.171Z,57.40
2022-09-17T19:51:03.593Z,57.40
2022-09-17T19:53:33.241Z,57.50
2022-09-17T19:56:04.572Z,57.50
2022-09-17T19:58:33.128Z,57.70
2022-09-17T20:01:01.658Z,57.70
2022-09-17T20:03:31.411Z,58.00
2022-09-17T20:06:03.321Z,58.00
2022-09-17T20:08:32.284Z,58.20
2022-09-17T20:11:05.807Z,58.40
2022-09-17T20:13:34.326Z,58.60
2022-09-17T20:16:06.106Z,58.60
2022-09-17T20:18:35.727Z,58.70
2022-09-17T20:21:09.474Z,58.80
2022-09-17T20:23:38.198Z,58.70
2022-09-17T20:26:06.907Z,58.80
2022-09-17T20:28:35.552Z,58.90
2022-09-17T20:31:04.575Z,58.90
2022-09-17T20:33:33.111Z,59.00
2022-09-17T20:36:02.112Z,59.20
2022-09-17T20:41:21.062Z,59.50
2022-09-17T20:43:50.206Z,59.80
2022-09-17T20:46:19.442Z,59.90
2022-09-17T20:48:48.257Z,60.20
2022-09-17T20:51:17.486Z,60.50
2022-09-17T20:53:48.254Z,60.80
2022-09-17T20:56:17.689Z,61.10
2022-09-17T20:58:49.170Z,61.50
2022-09-17T21:01:20.807Z,61.80
2022-09-17T21:03:50.389Z,62.40
2022-09-17T21:06:19.576Z,62.70
2022-09-17T21:08:49.874Z,62.70
2022-09-17T21:11:18.771Z,62.90
2022-09-17T21:13:47.297Z,63.00
2022-09-17T21:16:16.165Z,63.20
2022-09-17T21:18:45.097Z,63.30
2022-09-17T21:21:14.287Z,63.30
2022-09-17T21:23:43.288Z,63.40
2022-09-17T21:26:14.453Z,63.30
2022-09-17T21:28:43.816Z,62.90
2022-09-17T21:31:13.357Z,62.70
2022-09-17T21:33:42.472Z,62.80
2022-09-17T21:36:12.394Z,63.00
2022-09-17T21:38:41.057Z,62.70
2022-09-17T21:41:10.184Z,62.80
2022-09-17T21:43:40.547Z,62.40
2022-09-17T21:46:10.137Z,62.50
2022-09-17T21:48:42.860Z,63.00
2022-09-17T21:51:12.129Z,62.20
2022-09-17T21:53:40.881Z,62.00
2022-09-17T21:56:11.135Z,62.00
2022-09-17T21:58:41.178Z,62.10
2022-09-17T22:01:11.029Z,62.30
2022-09-17T22:03:39.759Z,62.20
2022-09-17T22:06:09.912Z,62.80
2022-09-17T22:08:38.655Z,62.30
2022-09-17T22:11:10.232Z,62.50
2022-09-17T22:13:39.343Z,62.60
2022-09-17T22:16:10.326Z,62.60
2022-09-17T22:18:39.458Z,62.70
2022-09-17T22:21:14.390Z,63.10
2022-09-17T22:23:43.123Z,63.40
2022-09-17T22:26:12.539Z,63.60
2022-09-17T22:28:41.055Z,63.70
2022-09-17T22:31:12.173Z,63.90
2022-09-17T22:33:41.679Z,64.00
2022-09-17T22:36:11.133Z,64.30
2022-09-17T22:38:39.975Z,64.40
2022-09-17T22:41:08.950Z,64.40
2022-09-17T22:43:37.573Z,64.70
2022-09-17T22:46:13.127Z,64.80
2022-09-17T22:48:41.648Z,64.80
2022-09-17T22:51:10.399Z,64.70
2022-09-17T22:53:39.299Z,64.70
2022-09-17T22:56:09.286Z,65.00
2022-09-17T22:58:37.824Z,65.10
2022-09-17T23:01:07.110Z,65.10
2022-09-17T23:03:37.178Z,65.20
2022-09-17T23:06:07.662Z,65.50
2022-09-17T23:08:36.815Z,65.50
2022-09-17T23:11:06.029Z,65.60
2022-09-17T23:13:35.128Z,65.40
2022-09-17T23:16:03.849Z,65.30
2022-09-17T23:18:32.639Z,65.50
2022-09-17T23:21:04.084Z,65.70
2022-09-17T23:23:52.808Z,65.70
2022-09-17T23:26:22.599Z,65.90
2022-09-17T23:28:51.094Z,65.80
2022-09-17T23:31:38.228Z,65.80
2022-09-17T23:34:07.050Z,65.90
2022-09-17T23:36:38.297Z,66.00
2022-09-17T23:39:07.687Z,65.90
2022-09-17T23:41:37.542Z,65.60
2022-09-17T23:44:10.699Z,65.70
2022-09-17T23:46:42.565Z,65.50
2022-09-17T23:49:11.712Z,65.40
2022-09-17T23:51:41.663Z,65.20
2022-09-17T23:54:10.371Z,65.20
2022-09-17T23:56:38.963Z,65.10
2022-09-17T23:59:08.747Z,64.90
